Killian, South Carolina
Current Conditions -  °F | °C
As of 3:53 PM on Friday 31 Oct 2014 (Local Time) from KCUB Reporting Station
Few Clouds Few Clouds  
Wind Chill: 20°   Ceiling: Unl
Heat Index: 20°   Visibility: 10mi
Dew Point:   Wind: 6mph
Humidity: 36%   Direction: 230°SW
Pressure: 29.8"   Gusts: NA
Location:  34.1179°N, 81.0612°W
Report Text: KCUB 311953Z AUTO 23005KT 10SM FEW060 20/04 A2980 RMK AO2 SLP091 T02000044
Loading
Personal Weather Stations






























Interactive Weather Map
Tropical Storm Tracking
New forecast layout! Learn more

10-Day Weather Forecast

Advertisements
Track Severe Weather on mobile